createdAt,value
2023-05-13T00:01:41.469Z,22.40
2023-05-13T00:04:18.023Z,22.40
2023-05-13T00:06:49.322Z,21.40
2023-05-13T00:09:17.554Z,22.30
2023-05-13T00:11:45.336Z,24.70
2023-05-13T00:14:13.524Z,24.50
2023-05-13T00:16:41.603Z,23.40
2023-05-13T00:19:09.922Z,19.80
2023-05-13T00:21:38.392Z,21.10
2023-05-13T00:24:06.486Z,21.60
2023-05-13T00:26:34.327Z,22.00
2023-05-13T00:29:02.278Z,20.10
2023-05-13T00:31:30.845Z,20.70
2023-05-13T00:33:59.322Z,22.40
2023-05-13T00:36:27.563Z,25.90
2023-05-13T00:38:55.487Z,20.20
2023-05-13T00:41:23.498Z,22.20
2023-05-13T00:43:56.139Z,20.60
2023-05-13T00:46:25.238Z,20.90
2023-05-13T00:48:53.330Z,20.90
2023-05-13T00:51:21.214Z,21.40
2023-05-13T00:53:52.438Z,20.90
2023-05-13T00:56:22.096Z,22.80
2023-05-13T00:58:50.422Z,22.70
2023-05-13T01:01:47.855Z,20.90
2023-05-13T01:04:36.891Z,22.80
2023-05-13T01:07:21.617Z,23.20
2023-05-13T01:10:09.625Z,21.80
2023-05-13T01:12:41.311Z,21.20
2023-05-13T01:15:14.088Z,22.60
2023-05-13T01:17:54.369Z,22.50
2023-05-13T01:20:24.163Z,22.20
2023-05-13T01:22:52.764Z,21.50
2023-05-13T01:25:21.370Z,22.30
2023-05-13T01:27:49.575Z,21.40
2023-05-13T01:30:17.901Z,20.60
2023-05-13T01:32:46.309Z,20.40
2023-05-13T01:35:16.509Z,21.30
2023-05-13T01:37:45.550Z,22.10
2023-05-13T01:40:30.531Z,25.50
2023-05-13T01:43:00.892Z,42.60
2023-05-13T01:45:30.184Z,58.50
2023-05-13T01:47:58.579Z,55.00
2023-05-13T01:50:27.097Z,41.00
2023-05-13T01:52:55.038Z,31.70
2023-05-13T01:55:23.133Z,31.90
2023-05-13T01:57:51.179Z,29.30
2023-05-13T02:00:19.773Z,27.00
2023-05-13T02:02:48.747Z,26.30
2023-05-13T02:05:17.333Z,28.00
2023-05-13T02:07:45.229Z,24.50
2023-05-13T02:10:13.214Z,23.20
2023-05-13T02:12:40.964Z,23.40
2023-05-13T02:15:09.858Z,27.50
2023-05-13T02:17:41.045Z,20.40
2023-05-13T02:20:09.654Z,21.60
2023-05-13T02:22:37.422Z,24.50
2023-05-13T02:25:05.694Z,22.90
2023-05-13T02:27:33.632Z,23.50
2023-05-13T02:30:01.897Z,20.40
2023-05-13T02:32:30.410Z,26.70
2023-05-13T02:35:01.057Z,21.30
2023-05-13T02:37:28.800Z,22.80
2023-05-13T02:39:56.589Z,22.50
2023-05-13T02:42:24.480Z,22.40
2023-05-13T02:44:52.988Z,21.10
2023-05-13T02:47:21.928Z,24.20
2023-05-13T02:49:49.693Z,22.10
2023-05-13T02:52:17.577Z,23.30
2023-05-13T02:54:46.035Z,22.80
2023-05-13T02:57:13.946Z,21.30
2023-05-13T02:59:42.498Z,23.10
2023-05-13T03:02:11.136Z,23.20
2023-05-13T03:04:41.359Z,23.20
2023-05-13T03:07:10.023Z,23.30
2023-05-13T03:09:39.447Z,23.80
2023-05-13T03:12:08.265Z,21.40
2023-05-13T03:14:37.196Z,20.50
2023-05-13T03:17:06.271Z,22.60
2023-05-13T03:19:37.901Z,19.60
2023-05-13T03:22:06.656Z,23.60
2023-05-13T03:24:34.384Z,25.70
2023-05-13T03:27:02.600Z,28.40
2023-05-13T03:29:31.004Z,21.80
2023-05-13T03:35:03.225Z,24.20
2023-05-13T03:37:34.470Z,27.90
2023-05-13T03:40:02.761Z,28.30
2023-05-13T03:42:30.895Z,28.60
2023-05-13T03:44:58.701Z,28.00
2023-05-13T03:47:26.501Z,26.10
2023-05-13T03:49:55.029Z,25.80
2023-05-13T03:52:23.470Z,28.10
2023-05-13T03:57:36.916Z,30.10
2023-05-13T04:00:05.610Z,28.30
2023-05-13T04:02:34.532Z,29.10
2023-05-13T04:05:02.604Z,29.60
2023-05-13T04:07:30.325Z,28.60
2023-05-13T04:09:58.053Z,30.40
2023-05-13T04:12:25.835Z,28.80
2023-05-13T04:14:54.286Z,29.20
2023-05-13T04:17:22.951Z,25.90
2023-05-13T04:19:53.968Z,24.30
2023-05-13T04:22:22.122Z,24.60
2023-05-13T04:24:52.157Z,24.90
2023-05-13T04:27:19.906Z,25.80
2023-05-13T04:29:48.061Z,22.40
2023-05-13T04:32:21.423Z,25.40
2023-05-13T04:34:49.548Z,22.10
2023-05-13T04:37:17.914Z,25.80
2023-05-13T04:39:46.989Z,21.90
2023-05-13T04:42:16.653Z,21.90
2023-05-13T04:44:45.199Z,23.20
2023-05-13T04:47:12.961Z,23.80
2023-05-13T04:49:40.655Z,24.80
2023-05-13T04:52:08.863Z,22.30
2023-05-13T04:54:38.496Z,22.10
2023-05-13T04:57:07.210Z,21.40
2023-05-13T04:59:35.729Z,19.00
2023-05-13T05:02:03.740Z,21.80
2023-05-13T05:04:31.576Z,22.80
2023-05-13T05:06:59.443Z,20.80
2023-05-13T05:09:27.441Z,22.40
2023-05-13T05:11:55.534Z,21.00
2023-05-13T05:14:23.764Z,22.50
2023-05-13T05:16:51.543Z,23.20
2023-05-13T05:19:24.189Z,18.00
2023-05-13T05:21:52.378Z,19.10
2023-05-13T05:24:20.705Z,22.00
2023-05-13T05:26:48.828Z,16.40
2023-05-13T05:29:16.799Z,15.60
2023-05-13T05:31:44.754Z,15.00
2023-05-13T05:34:12.603Z,16.30
2023-05-13T05:36:40.450Z,19.80
2023-05-13T05:39:08.652Z,18.70
2023-05-13T05:41:36.844Z,22.00
2023-05-13T05:44:04.805Z,21.70
2023-05-13T05:46:32.703Z,25.70
2023-05-13T05:49:00.796Z,19.70
2023-05-13T05:51:28.557Z,16.70
2023-05-13T05:53:56.696Z,18.70
2023-05-13T05:56:24.975Z,17.10
2023-05-13T05:58:52.910Z,19.70
2023-05-13T06:01:20.683Z,22.00
2023-05-13T06:03:48.492Z,20.90
2023-05-13T06:06:16.309Z,23.20
2023-05-13T06:08:44.444Z,22.90
2023-05-13T06:11:12.590Z,19.20
2023-05-13T06:13:40.332Z,20.60
2023-05-13T06:16:08.136Z,20.30
2023-05-13T06:18:35.960Z,21.90
2023-05-13T06:21:03.884Z,19.20
2023-05-13T06:23:32.177Z,22.20
2023-05-13T06:26:00.499Z,20.30
2023-05-13T06:28:28.280Z,20.10
2023-05-13T06:30:56.677Z,24.80
2023-05-13T06:33:24.522Z,21.80
2023-05-13T06:35:53.474Z,21.90
2023-05-13T06:38:21.668Z,19.10
2023-05-13T06:40:49.905Z,19.20
2023-05-13T06:43:18.230Z,17.20
2023-05-13T06:45:46.072Z,11.10
2023-05-13T06:48:14.223Z,14.60
2023-05-13T06:50:41.983Z,12.80
2023-05-13T06:53:13.539Z,14.20
2023-05-13T06:55:42.605Z,13.20
2023-05-13T06:58:10.871Z,13.30
2023-05-13T07:00:40.502Z,13.70
2023-05-13T07:03:08.624Z,13.10
2023-05-13T07:05:36.985Z,9.90
2023-05-13T07:08:08.692Z,10.20
2023-05-13T07:10:37.077Z,12.30
2023-05-13T07:13:05.086Z,13.00
2023-05-13T07:15:32.779Z,9.70
2023-05-13T07:18:00.971Z,6.40
2023-05-13T07:20:29.295Z,11.80
2023-05-13T07:22:57.487Z,10.60
2023-05-13T07:25:25.382Z,11.20
2023-05-13T07:27:53.056Z,12.50
2023-05-13T07:30:21.481Z,10.40
2023-05-13T07:32:51.427Z,6.90
2023-05-13T07:35:21.202Z,10.50
2023-05-13T07:37:49.163Z,7.70
2023-05-13T07:40:17.989Z,11.90
2023-05-13T07:42:45.741Z,10.70
2023-05-13T07:45:13.946Z,7.20
2023-05-13T07:47:44.379Z,5.90
2023-05-13T07:50:12.715Z,10.70
2023-05-13T07:52:40.454Z,7.30
2023-05-13T07:55:09.174Z,12.20
2023-05-13T07:57:37.359Z,9.40
2023-05-13T08:00:06.251Z,10.20
2023-05-13T08:02:35.389Z,6.90
2023-05-13T08:05:03.430Z,7.80
2023-05-13T08:07:31.162Z,7.00
2023-05-13T08:09:58.880Z,5.40
2023-05-13T08:12:27.093Z,9.10
2023-05-13T08:18:02.485Z,6.00
2023-05-13T08:20:30.383Z,6.70
2023-05-13T08:22:59.068Z,6.30
2023-05-13T08:25:26.986Z,7.80
2023-05-13T08:27:54.718Z,4.60
2023-05-13T08:30:23.082Z,5.80
2023-05-13T08:32:50.949Z,9.60
2023-05-13T08:35:19.407Z,8.00
2023-05-13T08:37:47.382Z,8.60
2023-05-13T08:40:15.776Z,7.50
2023-05-13T08:42:47.983Z,8.60
2023-05-13T08:45:18.954Z,14.50
2023-05-13T08:47:56.818Z,6.00
2023-05-13T08:50:25.707Z,6.70
2023-05-13T08:52:54.206Z,7.70
2023-05-13T08:55:24.413Z,7.50
2023-05-13T08:57:53.124Z,6.50
2023-05-13T09:00:21.865Z,6.00
2023-05-13T09:02:51.031Z,3.80
2023-05-13T09:05:20.494Z,9.30
2023-05-13T09:07:48.867Z,6.10
2023-05-13T09:10:18.131Z,9.30
2023-05-13T09:12:51.738Z,7.60
2023-05-13T09:15:23.139Z,11.90
2023-05-13T09:17:54.438Z,5.50
2023-05-13T09:20:25.503Z,8.00
2023-05-13T09:23:01.110Z,4.70
2023-05-13T09:25:31.139Z,11.70
2023-05-13T09:28:01.644Z,10.40
2023-05-13T09:30:33.209Z,6.30
2023-05-13T09:33:15.538Z,7.00
2023-05-13T09:35:54.816Z,7.80
2023-05-13T09:38:27.828Z,5.20
2023-05-13T09:40:57.822Z,11.80
2023-05-13T09:43:27.989Z,8.40
2023-05-13T09:45:57.520Z,5.50
2023-05-13T09:48:27.571Z,4.90
2023-05-13T09:50:58.178Z,4.70
2023-05-13T09:53:28.164Z,9.60
2023-05-13T09:55:57.927Z,15.00
2023-05-13T09:58:28.557Z,4.30
2023-05-13T10:00:57.404Z,7.20
2023-05-13T10:03:26.062Z,5.40
2023-05-13T10:05:55.256Z,5.50
2023-05-13T10:08:24.462Z,8.50
2023-05-13T10:10:56.449Z,4.40
2023-05-13T10:13:25.035Z,5.50
2023-05-13T10:15:55.481Z,9.80
2023-05-13T10:18:24.355Z,6.80
2023-05-13T10:20:55.318Z,7.40
2023-05-13T10:23:24.638Z,8.80
2023-05-13T10:25:54.974Z,11.30
2023-05-13T10:28:25.319Z,9.30
2023-05-13T10:30:53.127Z,5.20
2023-05-13T10:33:21.271Z,9.70
2023-05-13T10:36:27.931Z,6.50
2023-05-13T10:39:20.609Z,7.60
2023-05-13T10:41:58.008Z,5.50
2023-05-13T10:44:26.350Z,3.40
2023-05-13T10:46:56.849Z,8.60
2023-05-13T10:49:27.451Z,4.50
2023-05-13T10:52:05.346Z,5.80
2023-05-13T10:54:39.606Z,8.00
2023-05-13T10:57:08.610Z,7.90
2023-05-13T10:59:37.389Z,8.80
2023-05-13T11:02:22.414Z,5.70
2023-05-13T11:05:01.624Z,4.80
2023-05-13T11:07:29.938Z,9.30
2023-05-13T11:09:59.774Z,6.30
2023-05-13T11:12:27.520Z,6.40
2023-05-13T11:14:58.722Z,9.50
2023-05-13T11:17:27.098Z,4.90
2023-05-13T11:19:56.556Z,7.10
2023-05-13T11:22:24.613Z,5.10
2023-05-13T11:25:10.029Z,10.50
2023-05-13T11:27:42.297Z,8.10
2023-05-13T11:30:27.187Z,4.80
2023-05-13T11:32:59.639Z,7.10
2023-05-13T11:35:28.550Z,7.40
2023-05-13T11:37:59.894Z,6.00
2023-05-13T11:40:31.610Z,7.10
2023-05-13T11:43:00.457Z,7.70
2023-05-13T11:45:30.106Z,8.40
2023-05-13T11:47:58.375Z,4.60
2023-05-13T11:50:30.813Z,5.60
2023-05-13T11:53:01.403Z,4.80
2023-05-13T11:55:37.281Z,6.70
2023-05-13T11:58:05.021Z,7.30
2023-05-13T12:00:34.424Z,7.20
2023-05-13T12:03:11.962Z,6.60
2023-05-13T12:05:40.370Z,7.70
2023-05-13T12:08:11.245Z,6.90
2023-05-13T12:10:45.521Z,5.40
2023-05-13T12:13:14.297Z,7.90
2023-05-13T12:15:42.719Z,11.20
2023-05-13T12:18:10.998Z,9.90
2023-05-13T12:20:38.765Z,18.50
2023-05-13T12:23:06.728Z,8.40
2023-05-13T12:25:37.985Z,7.40
2023-05-13T12:28:18.765Z,5.00
2023-05-13T12:31:16.160Z,8.50
2023-05-13T12:33:44.663Z,5.50
2023-05-13T12:36:33.708Z,7.50
2023-05-13T12:39:07.371Z,8.60
2023-05-13T12:44:16.208Z,8.90
2023-05-13T12:46:51.882Z,7.80
2023-05-13T12:49:20.295Z,8.40
2023-05-13T12:51:48.364Z,7.10
2023-05-13T12:54:16.202Z,11.50
2023-05-13T12:56:44.592Z,8.30
2023-05-13T12:59:14.489Z,8.30
2023-05-13T13:01:43.022Z,7.20
2023-05-13T13:04:11.739Z,5.20
2023-05-13T13:06:39.885Z,12.00
2023-05-13T13:09:07.804Z,8.90
2023-05-13T13:11:35.626Z,10.50
2023-05-13T13:14:03.377Z,3.90
2023-05-13T13:16:32.020Z,7.70
2023-05-13T13:19:01.922Z,18.80
2023-05-13T13:21:29.965Z,6.70
2023-05-13T13:23:57.803Z,6.10
2023-05-13T13:26:25.672Z,11.40
2023-05-13T13:28:53.392Z,8.90
2023-05-13T13:31:22.075Z,9.70
2023-05-13T13:33:49.805Z,15.90
2023-05-13T13:36:17.711Z,25.40
2023-05-13T13:38:45.582Z,13.80
2023-05-13T13:41:13.287Z,12.40
2023-05-13T13:43:41.043Z,9.90
2023-05-13T13:46:09.333Z,13.00
2023-05-13T13:48:37.099Z,10.70
2023-05-13T13:51:05.100Z,11.90
2023-05-13T13:53:32.997Z,8.40
2023-05-13T13:56:00.771Z,11.20
2023-05-13T13:58:28.492Z,9.10
2023-05-13T14:00:56.686Z,8.90
2023-05-13T14:03:24.713Z,15.40
2023-05-13T14:05:54.285Z,76.80
2023-05-13T14:08:22.129Z,26.10
2023-05-13T14:10:50.345Z,25.80
2023-05-13T14:13:18.385Z,8.30
2023-05-13T14:15:46.214Z,14.40
2023-05-13T14:18:13.946Z,8.90
2023-05-13T14:20:41.676Z,8.70
2023-05-13T14:23:09.430Z,14.50
2023-05-13T14:25:37.175Z,10.50
2023-05-13T14:28:05.080Z,12.30
2023-05-13T14:30:32.780Z,9.30
2023-05-13T14:33:00.947Z,11.20
2023-05-13T14:35:28.920Z,8.90
2023-05-13T14:37:57.338Z,8.80
2023-05-13T14:40:25.121Z,8.70
2023-05-13T14:42:52.886Z,9.90
2023-05-13T14:45:20.732Z,15.30
2023-05-13T14:47:50.272Z,9.60
2023-05-13T14:50:18.829Z,9.10
2023-05-13T14:52:46.710Z,11.80
2023-05-13T14:55:15.042Z,8.30
2023-05-13T14:57:42.839Z,7.10
2023-05-13T15:00:11.623Z,8.70
2023-05-13T15:02:39.513Z,7.30
2023-05-13T15:05:07.815Z,7.20
2023-05-13T15:07:35.724Z,9.60
2023-05-13T15:10:04.185Z,9.00
2023-05-13T15:12:32.008Z,7.00
2023-05-13T15:14:59.829Z,10.00
2023-05-13T15:17:29.683Z,6.60
2023-05-13T15:19:57.484Z,6.80
2023-05-13T15:22:25.267Z,8.30
2023-05-13T15:24:53.528Z,6.30
2023-05-13T15:27:21.837Z,7.50
2023-05-13T15:29:49.556Z,8.70
2023-05-13T15:32:17.193Z,9.50
2023-05-13T15:34:44.925Z,13.50
2023-05-13T15:37:13.241Z,8.70
2023-05-13T15:39:41.085Z,6.70
2023-05-13T15:42:08.797Z,7.40
2023-05-13T15:44:36.562Z,11.00
2023-05-13T15:47:06.230Z,14.50
2023-05-13T15:49:34.323Z,14.30
2023-05-13T15:52:07.210Z,18.70
2023-05-13T15:54:35.878Z,15.10
2023-05-13T15:57:03.807Z,14.30
2023-05-13T15:59:31.615Z,10.00
2023-05-13T16:01:59.377Z,6.70
2023-05-13T16:04:27.151Z,10.30
2023-05-13T16:06:55.622Z,13.90
2023-05-13T16:09:24.011Z,12.10
2023-05-13T16:11:51.834Z,11.70
2023-05-13T16:14:19.816Z,12.20
2023-05-13T16:16:50.812Z,13.00
2023-05-13T16:19:18.807Z,10.50
2023-05-13T16:21:47.040Z,11.00
2023-05-13T16:24:15.489Z,10.30
2023-05-13T16:26:43.290Z,12.80
2023-05-13T16:29:11.627Z,9.20
2023-05-13T16:31:39.593Z,12.10
2023-05-13T16:34:07.390Z,10.60
2023-05-13T16:36:35.847Z,9.20
2023-05-13T16:39:04.484Z,12.00
2023-05-13T16:41:33.318Z,11.30
2023-05-13T16:44:01.113Z,10.60
2023-05-13T16:46:29.051Z,10.40
2023-05-13T16:49:02.177Z,13.40
2023-05-13T16:51:30.582Z,9.20
2023-05-13T16:53:59.059Z,12.50
2023-05-13T16:56:26.755Z,10.40
2023-05-13T16:58:58.060Z,11.00
2023-05-13T17:01:26.219Z,7.20
2023-05-13T17:03:53.945Z,11.10
2023-05-13T17:06:22.250Z,20.10
2023-05-13T17:08:50.686Z,12.50
2023-05-13T17:11:22.766Z,13.30
2023-05-13T17:13:50.555Z,21.40
2023-05-13T17:16:18.313Z,17.20
2023-05-13T17:18:46.860Z,12.40
2023-05-13T17:21:15.308Z,12.50
2023-05-13T17:23:43.117Z,15.80
2023-05-13T17:26:10.906Z,11.20
2023-05-13T17:28:40.255Z,11.40
2023-05-13T17:31:08.674Z,15.70
2023-05-13T17:33:36.564Z,8.90
2023-05-13T17:36:04.791Z,10.70
2023-05-13T17:38:32.944Z,13.50
2023-05-13T17:41:00.705Z,10.60
2023-05-13T17:43:28.655Z,8.20
2023-05-13T17:45:57.062Z,13.40
2023-05-13T17:48:25.158Z,15.10
2023-05-13T17:50:53.460Z,15.30
2023-05-13T17:53:21.389Z,17.50
2023-05-13T17:55:54.622Z,12.40
2023-05-13T17:58:22.388Z,21.10
2023-05-13T18:00:50.766Z,15.30
2023-05-13T18:03:19.050Z,23.40
2023-05-13T18:06:01.252Z,15.70
2023-05-13T18:08:29.114Z,17.80
2023-05-13T18:10:57.174Z,21.90
2023-05-13T18:13:25.662Z,21.10
2023-05-13T18:15:53.985Z,25.70
2023-05-13T18:18:24.376Z,22.80
2023-05-13T18:20:52.985Z,27.60
2023-05-13T18:23:26.124Z,26.90
2023-05-13T18:26:00.240Z,26.80
2023-05-13T18:28:33.419Z,27.50
2023-05-13T18:31:06.554Z,29.70
2023-05-13T18:33:34.429Z,27.50
2023-05-13T18:36:05.529Z,32.00
2023-05-13T18:38:36.223Z,28.60
2023-05-13T18:41:04.789Z,34.90
2023-05-13T18:43:38.703Z,41.70
2023-05-13T18:46:12.276Z,33.10
2023-05-13T18:48:40.674Z,37.40
2023-05-13T18:51:08.528Z,34.00
2023-05-13T18:53:36.502Z,33.70
2023-05-13T18:56:04.388Z,31.80
2023-05-13T18:58:32.304Z,27.20
2023-05-13T19:01:01.249Z,29.60
2023-05-13T19:03:29.794Z,28.60
2023-05-13T19:05:57.889Z,26.90
2023-05-13T19:08:34.871Z,24.20
2023-05-13T19:11:05.992Z,30.40
2023-05-13T19:13:46.039Z,28.10
2023-05-13T19:16:15.891Z,34.90
2023-05-13T19:18:43.763Z,27.90
2023-05-13T19:21:12.083Z,37.10
2023-05-13T19:23:39.888Z,33.50
2023-05-13T19:26:08.273Z,29.00
2023-05-13T19:28:37.803Z,29.60
2023-05-13T19:31:06.230Z,29.40
2023-05-13T19:33:37.114Z,29.90
2023-05-13T19:36:06.024Z,30.10
2023-05-13T19:38:35.406Z,25.10
2023-05-13T19:41:14.060Z,26.50
2023-05-13T19:43:47.311Z,25.10
2023-05-13T19:46:21.384Z,24.20
2023-05-13T19:48:49.457Z,21.20
2023-05-13T19:51:18.171Z,26.00
2023-05-13T19:53:46.081Z,22.20
2023-05-13T19:56:23.131Z,24.60
2023-05-13T19:58:50.981Z,23.30
2023-05-13T20:01:19.320Z,27.20
2023-05-13T20:03:47.722Z,25.80
2023-05-13T20:06:19.137Z,23.90
2023-05-13T20:08:47.277Z,26.40
2023-05-13T20:11:15.037Z,28.60
2023-05-13T20:13:43.659Z,29.10
2023-05-13T20:16:11.948Z,28.10
2023-05-13T20:18:43.068Z,27.70
2023-05-13T20:21:10.943Z,28.40
2023-05-13T20:23:41.680Z,25.40
2023-05-13T20:26:10.106Z,23.50
2023-05-13T20:28:45.832Z,24.30
2023-05-13T20:31:18.240Z,23.20
2023-05-13T20:33:46.237Z,26.00
2023-05-13T20:36:13.957Z,23.00
2023-05-13T20:38:42.401Z,24.00
2023-05-13T20:41:11.304Z,22.30
2023-05-13T20:43:47.045Z,25.40
2023-05-13T20:46:17.085Z,23.10
2023-05-13T20:48:45.770Z,24.60
2023-05-13T20:51:14.049Z,25.30
2023-05-13T20:53:46.503Z,23.30
2023-05-13T20:56:14.257Z,25.80
2023-05-13T20:58:41.996Z,26.50
2023-05-13T21:01:10.208Z,24.20
2023-05-13T21:03:38.499Z,26.10
2023-05-13T21:06:06.317Z,24.90
2023-05-13T21:08:36.961Z,26.60
2023-05-13T21:11:06.491Z,26.20
2023-05-13T21:13:34.816Z,26.30
2023-05-13T21:16:06.557Z,24.80
2023-05-13T21:18:34.947Z,26.40
2023-05-13T21:21:08.482Z,25.70
2023-05-13T21:26:09.193Z,27.50
2023-05-13T21:28:37.720Z,23.80
2023-05-13T21:31:09.280Z,25.60
2023-05-13T21:33:37.269Z,22.80
2023-05-13T21:36:07.610Z,22.20
2023-05-13T21:38:35.415Z,24.70
2023-05-13T21:41:04.049Z,24.70
2023-05-13T21:43:31.844Z,22.40
2023-05-13T21:46:03.506Z,26.90
2023-05-13T21:48:31.284Z,26.10
2023-05-13T21:50:59.110Z,28.40
2023-05-13T21:53:27.080Z,26.30
2023-05-13T21:55:56.731Z,27.80
2023-05-13T21:58:24.699Z,31.50
2023-05-13T22:00:53.072Z,31.10
2023-05-13T22:03:21.111Z,32.80
2023-05-13T22:05:48.855Z,29.60
2023-05-13T22:08:16.663Z,26.70
2023-05-13T22:10:44.596Z,29.00
2023-05-13T22:13:12.376Z,27.40
2023-05-13T22:15:40.227Z,29.00
2023-05-13T22:18:10.944Z,28.40
2023-05-13T22:20:38.868Z,29.20
2023-05-13T22:23:07.225Z,29.90
2023-05-13T22:25:37.860Z,28.20
2023-05-13T22:28:06.205Z,29.80
2023-05-13T22:30:33.990Z,29.00
2023-05-13T22:33:01.937Z,29.60
2023-05-13T22:35:29.724Z,29.90
2023-05-13T22:37:57.444Z,27.80
2023-05-13T22:41:01.779Z,30.20
2023-05-13T22:43:30.102Z,27.30
2023-05-13T22:45:58.127Z,26.90
2023-05-13T22:48:26.911Z,29.20
2023-05-13T22:50:57.163Z,31.30
2023-05-13T22:53:25.293Z,33.90
2023-05-13T22:55:53.806Z,30.60
2023-05-13T22:58:22.538Z,31.90
2023-05-13T23:00:50.938Z,27.20
2023-05-13T23:03:19.088Z,30.60
2023-05-13T23:05:46.814Z,28.30
2023-05-13T23:08:14.637Z,30.30
2023-05-13T23:10:42.501Z,30.30
2023-05-13T23:13:10.280Z,27.90
2023-05-13T23:15:38.136Z,27.20
2023-05-13T23:18:06.058Z,30.00
2023-05-13T23:20:33.949Z,27.60
2023-05-13T23:23:01.629Z,25.30
2023-05-13T23:25:29.534Z,27.10
2023-05-13T23:27:57.918Z,26.70
2023-05-13T23:30:25.946Z,28.50
2023-05-13T23:32:53.896Z,28.50
2023-05-13T23:35:21.665Z,28.10
2023-05-13T23:37:49.410Z,28.90
2023-05-13T23:40:17.477Z,26.40
2023-05-13T23:42:45.660Z,27.80
2023-05-13T23:45:13.403Z,28.90
2023-05-13T23:47:41.185Z,28.70
2023-05-13T23:50:09.672Z,30.60
2023-05-13T23:52:37.442Z,28.40
2023-05-13T23:55:06.128Z,27.90
2023-05-13T23:57:34.392Z,28.90
